sensor_id;sensor_type;location;lat;lon;timestamp;P1;durP1;ratioP1;P2;durP2;ratioP2
44606;SDS011;30315;46.072;14.474;2022-08-03T00:01:36;2.33;;;2.22;;
44606;SDS011;30315;46.072;14.474;2022-08-03T00:04:05;3.13;;;2.33;;
44606;SDS011;30315;46.072;14.474;2022-08-03T00:06:33;2.60;;;2.40;;
44606;SDS011;30315;46.072;14.474;2022-08-03T00:09:03;2.45;;;2.25;;
44606;SDS011;30315;46.072;14.474;2022-08-03T00:11:31;4.22;;;2.40;;
44606;SDS011;30315;46.072;14.474;2022-08-03T00:13:59;2.85;;;2.50;;
44606;SDS011;30315;46.072;14.474;2022-08-03T00:16:26;2.70;;;2.05;;
44606;SDS011;30315;46.072;14.474;2022-08-03T00:18:53;2.50;;;2.30;;
44606;SDS011;30315;46.072;14.474;2022-08-03T00:21:20;2.70;;;2.50;;
44606;SDS011;30315;46.072;14.474;2022-08-03T00:23:47;2.60;;;2.38;;
44606;SDS011;30315;46.072;14.474;2022-08-03T00:26:18;4.13;;;2.20;;
44606;SDS011;30315;46.072;14.474;2022-08-03T00:28:48;2.55;;;2.35;;
44606;SDS011;30315;46.072;14.474;2022-08-03T00:31:16;4.95;;;2.30;;
44606;SDS011;30315;46.072;14.474;2022-08-03T00:34:05;3.55;;;2.60;;
44606;SDS011;30315;46.072;14.474;2022-08-03T00:36:33;3.28;;;2.50;;
44606;SDS011;30315;46.072;14.474;2022-08-03T00:41:30;2.55;;;2.45;;
44606;SDS011;30315;46.072;14.474;2022-08-03T00:43:57;2.80;;;2.53;;
44606;SDS011;30315;46.072;14.474;2022-08-03T00:46:24;3.08;;;2.50;;
44606;SDS011;30315;46.072;14.474;2022-08-03T00:48:51;3.45;;;2.33;;
44606;SDS011;30315;46.072;14.474;2022-08-03T00:51:19;2.50;;;2.28;;
44606;SDS011;30315;46.072;14.474;2022-08-03T00:53:47;2.78;;;2.58;;
44606;SDS011;30315;46.072;14.474;2022-08-03T00:56:15;2.95;;;2.08;;
44606;SDS011;30315;46.072;14.474;2022-08-03T00:58:43;2.47;;;2.28;;
44606;SDS011;30315;46.072;14.474;2022-08-03T01:01:11;3.90;;;2.40;;
44606;SDS011;30315;46.072;14.474;2022-08-03T01:03:39;4.45;;;2.50;;
44606;SDS011;30315;46.072;14.474;2022-08-03T01:06:11;2.05;;;1.95;;
44606;SDS011;30315;46.072;14.474;2022-08-03T01:11:18;2.92;;;2.42;;
44606;SDS011;30315;46.072;14.474;2022-08-03T01:20:03;4.13;;;2.35;;
44606;SDS011;30315;46.072;14.474;2022-08-03T01:30:14;3.60;;;2.30;;
44606;SDS011;30315;46.072;14.474;2022-08-03T01:32:45;3.58;;;2.35;;
44606;SDS011;30315;46.072;14.474;2022-08-03T01:35:30;3.10;;;2.50;;
44606;SDS011;30315;46.072;14.474;2022-08-03T01:38:06;2.53;;;2.40;;
44606;SDS011;30315;46.072;14.474;2022-08-03T01:40:39;2.90;;;2.60;;
44606;SDS011;30315;46.072;14.474;2022-08-03T01:43:08;3.88;;;2.25;;
44606;SDS011;30315;46.072;14.474;2022-08-03T01:46:00;3.72;;;2.70;;
44606;SDS011;30315;46.072;14.474;2022-08-03T01:48:28;2.40;;;2.20;;
44606;SDS011;30315;46.072;14.474;2022-08-03T01:50:57;2.42;;;2.33;;
44606;SDS011;30315;46.072;14.474;2022-08-03T01:53:25;2.33;;;2.17;;
44606;SDS011;30315;46.072;14.474;2022-08-03T01:55:54;3.25;;;2.38;;
44606;SDS011;30315;46.072;14.474;2022-08-03T01:58:23;2.95;;;2.60;;
44606;SDS011;30315;46.072;14.474;2022-08-03T02:00:51;4.85;;;2.28;;
44606;SDS011;30315;46.072;14.474;2022-08-03T02:03:23;7.07;;;2.58;;
44606;SDS011;30315;46.072;14.474;2022-08-03T02:05:50;2.67;;;2.28;;
44606;SDS011;30315;46.072;14.474;2022-08-03T02:08:40;2.78;;;2.58;;
44606;SDS011;30315;46.072;14.474;2022-08-03T02:13:59;2.50;;;2.30;;
44606;SDS011;30315;46.072;14.474;2022-08-03T02:16:29;3.08;;;2.10;;
44606;SDS011;30315;46.072;14.474;2022-08-03T02:18:59;2.30;;;2.20;;
44606;SDS011;30315;46.072;14.474;2022-08-03T02:21:30;2.70;;;2.50;;
44606;SDS011;30315;46.072;14.474;2022-08-03T02:24:20;2.40;;;2.20;;
44606;SDS011;30315;46.072;14.474;2022-08-03T02:26:47;3.28;;;2.45;;
44606;SDS011;30315;46.072;14.474;2022-08-03T02:29:18;5.57;;;2.15;;
44606;SDS011;30315;46.072;14.474;2022-08-03T02:34:40;2.83;;;2.63;;
44606;SDS011;30315;46.072;14.474;2022-08-03T02:37:11;4.25;;;3.00;;
44606;SDS011;30315;46.072;14.474;2022-08-03T02:39:40;3.23;;;2.33;;
44606;SDS011;30315;46.072;14.474;2022-08-03T02:42:09;4.72;;;2.53;;
44606;SDS011;30315;46.072;14.474;2022-08-03T02:44:38;2.55;;;2.35;;
44606;SDS011;30315;46.072;14.474;2022-08-03T02:47:09;2.50;;;2.30;;
44606;SDS011;30315;46.072;14.474;2022-08-03T02:52:17;2.42;;;2.22;;
44606;SDS011;30315;46.072;14.474;2022-08-03T02:54:47;2.30;;;2.20;;
44606;SDS011;30315;46.072;14.474;2022-08-03T02:57:17;2.88;;;2.55;;
44606;SDS011;30315;46.072;14.474;2022-08-03T02:59:45;2.78;;;2.58;;
44606;SDS011;30315;46.072;14.474;2022-08-03T03:02:13;6.05;;;2.60;;
44606;SDS011;30315;46.072;14.474;2022-08-03T03:07:30;2.58;;;2.40;;
44606;SDS011;30315;46.072;14.474;2022-08-03T03:10:17;3.85;;;2.67;;
44606;SDS011;30315;46.072;14.474;2022-08-03T03:12:46;3.20;;;2.17;;
44606;SDS011;30315;46.072;14.474;2022-08-03T03:15:16;2.38;;;2.20;;
44606;SDS011;30315;46.072;14.474;2022-08-03T03:17:44;5.13;;;2.53;;
44606;SDS011;30315;46.072;14.474;2022-08-03T03:20:12;4.60;;;2.70;;
44606;SDS011;30315;46.072;14.474;2022-08-03T03:22:55;3.92;;;2.83;;
44606;SDS011;30315;46.072;14.474;2022-08-03T03:25:25;2.92;;;2.15;;
44606;SDS011;30315;46.072;14.474;2022-08-03T03:27:55;2.67;;;2.40;;
44606;SDS011;30315;46.072;14.474;2022-08-03T03:30:24;2.47;;;2.38;;
44606;SDS011;30315;46.072;14.474;2022-08-03T03:32:52;2.53;;;2.35;;
44606;SDS011;30315;46.072;14.474;2022-08-03T03:35:20;3.33;;;2.53;;
44606;SDS011;30315;46.072;14.474;2022-08-03T03:37:48;3.60;;;2.47;;
44606;SDS011;30315;46.072;14.474;2022-08-03T03:40:14;3.35;;;2.53;;
44606;SDS011;30315;46.072;14.474;2022-08-03T03:42:41;3.05;;;2.83;;
44606;SDS011;30315;46.072;14.474;2022-08-03T03:45:09;2.70;;;2.50;;
44606;SDS011;30315;46.072;14.474;2022-08-03T03:47:37;2.60;;;2.40;;
44606;SDS011;30315;46.072;14.474;2022-08-03T03:50:04;3.80;;;2.47;;
44606;SDS011;30315;46.072;14.474;2022-08-03T03:52:32;2.70;;;2.50;;
44606;SDS011;30315;46.072;14.474;2022-08-03T03:54:59;4.53;;;2.53;;
44606;SDS011;30315;46.072;14.474;2022-08-03T03:57:27;2.70;;;2.40;;
44606;SDS011;30315;46.072;14.474;2022-08-03T03:59:55;3.33;;;2.17;;
44606;SDS011;30315;46.072;14.474;2022-08-03T04:02:22;2.60;;;2.40;;
44606;SDS011;30315;46.072;14.474;2022-08-03T04:04:49;4.20;;;2.35;;
44606;SDS011;30315;46.072;14.474;2022-08-03T04:07:45;2.80;;;2.60;;
44606;SDS011;30315;46.072;14.474;2022-08-03T04:10:46;2.90;;;2.70;;
44606;SDS011;30315;46.072;14.474;2022-08-03T04:13:28;2.38;;;2.17;;
44606;SDS011;30315;46.072;14.474;2022-08-03T04:16:02;2.63;;;2.42;;
44606;SDS011;30315;46.072;14.474;2022-08-03T04:18:31;3.35;;;2.60;;
44606;SDS011;30315;46.072;14.474;2022-08-03T04:21:01;5.18;;;2.75;;
44606;SDS011;30315;46.072;14.474;2022-08-03T04:23:34;2.60;;;2.40;;
44606;SDS011;30315;46.072;14.474;2022-08-03T04:26:04;3.60;;;2.85;;
44606;SDS011;30315;46.072;14.474;2022-08-03T04:28:35;2.90;;;2.70;;
44606;SDS011;30315;46.072;14.474;2022-08-03T04:33:32;3.58;;;3.28;;
44606;SDS011;30315;46.072;14.474;2022-08-03T04:36:03;3.45;;;2.72;;
44606;SDS011;30315;46.072;14.474;2022-08-03T04:38:35;4.65;;;2.67;;
44606;SDS011;30315;46.072;14.474;2022-08-03T04:41:06;2.88;;;2.67;;
44606;SDS011;30315;46.072;14.474;2022-08-03T04:43:34;3.23;;;2.93;;
44606;SDS011;30315;46.072;14.474;2022-08-03T04:46:06;3.60;;;2.60;;
44606;SDS011;30315;46.072;14.474;2022-08-03T04:48:34;3.75;;;2.80;;
44606;SDS011;30315;46.072;14.474;2022-08-03T04:51:01;4.72;;;3.15;;
44606;SDS011;30315;46.072;14.474;2022-08-03T04:53:29;5.50;;;2.95;;
44606;SDS011;30315;46.072;14.474;2022-08-03T04:56:02;3.58;;;3.00;;
44606;SDS011;30315;46.072;14.474;2022-08-03T04:58:31;3.15;;;2.70;;
44606;SDS011;30315;46.072;14.474;2022-08-03T05:00:58;4.22;;;3.30;;
44606;SDS011;30315;46.072;14.474;2022-08-03T05:03:25;7.55;;;4.45;;
44606;SDS011;30315;46.072;14.474;2022-08-03T05:05:52;7.78;;;3.33;;
44606;SDS011;30315;46.072;14.474;2022-08-03T05:08:35;3.63;;;3.33;;
44606;SDS011;30315;46.072;14.474;2022-08-03T05:11:13;4.35;;;3.17;;
44606;SDS011;30315;46.072;14.474;2022-08-03T05:13:41;3.45;;;3.15;;
44606;SDS011;30315;46.072;14.474;2022-08-03T05:16:13;4.03;;;3.45;;
44606;SDS011;30315;46.072;14.474;2022-08-03T05:18:40;3.70;;;3.22;;
44606;SDS011;30315;46.072;14.474;2022-08-03T05:21:08;3.70;;;3.40;;
44606;SDS011;30315;46.072;14.474;2022-08-03T05:23:36;4.20;;;3.80;;
44606;SDS011;30315;46.072;14.474;2022-08-03T05:26:03;4.78;;;4.05;;
44606;SDS011;30315;46.072;14.474;2022-08-03T05:28:30;4.43;;;3.67;;
44606;SDS011;30315;46.072;14.474;2022-08-03T05:30:57;4.50;;;4.10;;
44606;SDS011;30315;46.072;14.474;2022-08-03T05:33:24;5.38;;;3.60;;
44606;SDS011;30315;46.072;14.474;2022-08-03T05:35:51;3.97;;;3.55;;
44606;SDS011;30315;46.072;14.474;2022-08-03T05:38:28;4.05;;;3.78;;
44606;SDS011;30315;46.072;14.474;2022-08-03T05:41:00;4.65;;;4.22;;
44606;SDS011;30315;46.072;14.474;2022-08-03T05:43:48;6.10;;;4.38;;
44606;SDS011;30315;46.072;14.474;2022-08-03T05:46:20;5.07;;;4.43;;
44606;SDS011;30315;46.072;14.474;2022-08-03T05:48:48;5.35;;;4.22;;
44606;SDS011;30315;46.072;14.474;2022-08-03T05:51:15;4.97;;;4.57;;
44606;SDS011;30315;46.072;14.474;2022-08-03T05:53:42;6.18;;;4.72;;
44606;SDS011;30315;46.072;14.474;2022-08-03T05:56:13;4.60;;;4.30;;
44606;SDS011;30315;46.072;14.474;2022-08-03T05:58:43;4.65;;;4.28;;
44606;SDS011;30315;46.072;14.474;2022-08-03T06:01:14;4.97;;;4.55;;
44606;SDS011;30315;46.072;14.474;2022-08-03T06:03:42;4.38;;;4.07;;
44606;SDS011;30315;46.072;14.474;2022-08-03T06:06:09;5.18;;;4.15;;
44606;SDS011;30315;46.072;14.474;2022-08-03T06:08:37;4.57;;;4.18;;
44606;SDS011;30315;46.072;14.474;2022-08-03T06:11:05;5.47;;;4.00;;
44606;SDS011;30315;46.072;14.474;2022-08-03T06:13:33;4.35;;;3.90;;
44606;SDS011;30315;46.072;14.474;2022-08-03T06:16:00;5.43;;;4.75;;
44606;SDS011;30315;46.072;14.474;2022-08-03T06:18:27;4.78;;;4.00;;
44606;SDS011;30315;46.072;14.474;2022-08-03T06:20:54;4.32;;;3.85;;
44606;SDS011;30315;46.072;14.474;2022-08-03T06:23:21;3.88;;;3.58;;
44606;SDS011;30315;46.072;14.474;2022-08-03T06:26:08;4.07;;;3.70;;
44606;SDS011;30315;46.072;14.474;2022-08-03T06:28:38;3.70;;;3.40;;
44606;SDS011;30315;46.072;14.474;2022-08-03T06:31:18;4.03;;;3.63;;
44606;SDS011;30315;46.072;14.474;2022-08-03T06:36:35;4.43;;;3.22;;
44606;SDS011;30315;46.072;14.474;2022-08-03T06:39:02;3.60;;;3.03;;
44606;SDS011;30315;46.072;14.474;2022-08-03T06:41:29;4.00;;;3.42;;
44606;SDS011;30315;46.072;14.474;2022-08-03T06:44:10;3.88;;;3.60;;
44606;SDS011;30315;46.072;14.474;2022-08-03T06:46:37;3.60;;;3.30;;
44606;SDS011;30315;46.072;14.474;2022-08-03T06:49:05;3.72;;;3.42;;
44606;SDS011;30315;46.072;14.474;2022-08-03T06:51:32;3.50;;;3.20;;
44606;SDS011;30315;46.072;14.474;2022-08-03T06:54:19;3.80;;;3.50;;
44606;SDS011;30315;46.072;14.474;2022-08-03T06:56:47;2.72;;;2.60;;
44606;SDS011;30315;46.072;14.474;2022-08-03T06:59:14;3.30;;;3.00;;
44606;SDS011;30315;46.072;14.474;2022-08-03T07:02:01;5.63;;;3.33;;
44606;SDS011;30315;46.072;14.474;2022-08-03T07:04:29;4.05;;;3.28;;
44606;SDS011;30315;46.072;14.474;2022-08-03T07:06:55;3.85;;;3.05;;
44606;SDS011;30315;46.072;14.474;2022-08-03T07:09:23;3.00;;;2.80;;
44606;SDS011;30315;46.072;14.474;2022-08-03T07:11:51;4.13;;;3.33;;
44606;SDS011;30315;46.072;14.474;2022-08-03T07:14:19;4.10;;;3.22;;
44606;SDS011;30315;46.072;14.474;2022-08-03T07:16:46;2.70;;;2.50;;
44606;SDS011;30315;46.072;14.474;2022-08-03T07:19:13;4.43;;;3.00;;
44606;SDS011;30315;46.072;14.474;2022-08-03T07:21:40;3.08;;;2.88;;
44606;SDS011;30315;46.072;14.474;2022-08-03T07:24:07;2.58;;;2.40;;
44606;SDS011;30315;46.072;14.474;2022-08-03T07:26:34;3.90;;;2.60;;
44606;SDS011;30315;46.072;14.474;2022-08-03T07:29:01;4.28;;;2.83;;
44606;SDS011;30315;46.072;14.474;2022-08-03T07:31:36;2.85;;;2.42;;
44606;SDS011;30315;46.072;14.474;2022-08-03T07:34:04;2.72;;;2.40;;
44606;SDS011;30315;46.072;14.474;2022-08-03T07:36:31;2.90;;;2.60;;
44606;SDS011;30315;46.072;14.474;2022-08-03T07:38:59;2.63;;;2.50;;
44606;SDS011;30315;46.072;14.474;2022-08-03T07:41:42;2.83;;;2.63;;
44606;SDS011;30315;46.072;14.474;2022-08-03T07:44:09;4.65;;;2.75;;
44606;SDS011;30315;46.072;14.474;2022-08-03T07:46:36;4.50;;;2.75;;
44606;SDS011;30315;46.072;14.474;2022-08-03T07:49:03;3.08;;;2.88;;
44606;SDS011;30315;46.072;14.474;2022-08-03T07:51:31;3.42;;;2.30;;
44606;SDS011;30315;46.072;14.474;2022-08-03T07:53:58;3.10;;;2.60;;
44606;SDS011;30315;46.072;14.474;2022-08-03T07:56:26;3.20;;;2.95;;
44606;SDS011;30315;46.072;14.474;2022-08-03T07:58:53;2.70;;;2.50;;
44606;SDS011;30315;46.072;14.474;2022-08-03T08:01:21;2.45;;;2.25;;
44606;SDS011;30315;46.072;14.474;2022-08-03T08:03:49;2.53;;;2.33;;
44606;SDS011;30315;46.072;14.474;2022-08-03T08:08:45;3.97;;;2.95;;
44606;SDS011;30315;46.072;14.474;2022-08-03T08:11:12;5.32;;;2.97;;
44606;SDS011;30315;46.072;14.474;2022-08-03T08:13:39;3.15;;;2.45;;
44606;SDS011;30315;46.072;14.474;2022-08-03T08:16:06;4.30;;;2.80;;
44606;SDS011;30315;46.072;14.474;2022-08-03T08:18:33;2.70;;;2.50;;
44606;SDS011;30315;46.072;14.474;2022-08-03T08:21:00;2.80;;;2.60;;
44606;SDS011;30315;46.072;14.474;2022-08-03T08:23:29;3.47;;;2.60;;
44606;SDS011;30315;46.072;14.474;2022-08-03T08:26:09;2.30;;;2.20;;
44606;SDS011;30315;46.072;14.474;2022-08-03T08:28:37;2.60;;;2.40;;
44606;SDS011;30315;46.072;14.474;2022-08-03T08:31:04;5.43;;;2.92;;
44606;SDS011;30315;46.072;14.474;2022-08-03T08:33:31;2.67;;;2.47;;
44606;SDS011;30315;46.072;14.474;2022-08-03T08:36:20;2.90;;;2.70;;
44606;SDS011;30315;46.072;14.474;2022-08-03T08:38:47;2.45;;;2.25;;
44606;SDS011;30315;46.072;14.474;2022-08-03T08:41:14;2.83;;;2.50;;
44606;SDS011;30315;46.072;14.474;2022-08-03T08:43:41;2.53;;;2.42;;
44606;SDS011;30315;46.072;14.474;2022-08-03T08:46:10;2.42;;;2.22;;
44606;SDS011;30315;46.072;14.474;2022-08-03T08:48:49;2.45;;;2.15;;
44606;SDS011;30315;46.072;14.474;2022-08-03T08:51:19;2.42;;;2.33;;
44606;SDS011;30315;46.072;14.474;2022-08-03T08:53:49;2.30;;;2.10;;
44606;SDS011;30315;46.072;14.474;2022-08-03T08:56:17;2.65;;;2.42;;
44606;SDS011;30315;46.072;14.474;2022-08-03T08:58:50;2.63;;;2.53;;
44606;SDS011;30315;46.072;14.474;2022-08-03T09:01:18;4.15;;;2.45;;
44606;SDS011;30315;46.072;14.474;2022-08-03T09:03:47;2.20;;;2.10;;
44606;SDS011;30315;46.072;14.474;2022-08-03T09:06:14;2.20;;;2.10;;
44606;SDS011;30315;46.072;14.474;2022-08-03T09:08:42;2.33;;;2.22;;
44606;SDS011;30315;46.072;14.474;2022-08-03T09:11:09;2.90;;;2.70;;
44606;SDS011;30315;46.072;14.474;2022-08-03T09:13:37;3.90;;;2.42;;
44606;SDS011;30315;46.072;14.474;2022-08-03T09:16:14;2.53;;;2.20;;
44606;SDS011;30315;46.072;14.474;2022-08-03T09:18:51;2.58;;;2.38;;
44606;SDS011;30315;46.072;14.474;2022-08-03T09:21:23;4.10;;;2.10;;
44606;SDS011;30315;46.072;14.474;2022-08-03T09:24:01;2.55;;;2.35;;
44606;SDS011;30315;46.072;14.474;2022-08-03T09:26:35;3.22;;;2.30;;
44606;SDS011;30315;46.072;14.474;2022-08-03T09:31:40;2.58;;;2.38;;
44606;SDS011;30315;46.072;14.474;2022-08-03T09:34:11;2.30;;;2.20;;
44606;SDS011;30315;46.072;14.474;2022-08-03T09:36:43;2.75;;;2.55;;
44606;SDS011;30315;46.072;14.474;2022-08-03T09:39:13;3.00;;;2.08;;
44606;SDS011;30315;46.072;14.474;2022-08-03T09:41:41;2.60;;;2.40;;
44606;SDS011;30315;46.072;14.474;2022-08-03T09:44:09;2.75;;;2.20;;
44606;SDS011;30315;46.072;14.474;2022-08-03T09:46:52;2.40;;;2.22;;
44606;SDS011;30315;46.072;14.474;2022-08-03T09:49:21;2.45;;;2.20;;
44606;SDS011;30315;46.072;14.474;2022-08-03T09:51:49;2.50;;;2.30;;
44606;SDS011;30315;46.072;14.474;2022-08-03T09:54:36;2.90;;;2.50;;
44606;SDS011;30315;46.072;14.474;2022-08-03T09:57:03;4.32;;;2.22;;
44606;SDS011;30315;46.072;14.474;2022-08-03T09:59:31;2.30;;;2.20;;
44606;SDS011;30315;46.072;14.474;2022-08-03T10:01:59;3.25;;;2.13;;
44606;SDS011;30315;46.072;14.474;2022-08-03T10:04:28;2.55;;;2.35;;
44606;SDS011;30315;46.072;14.474;2022-08-03T10:09:30;2.10;;;2.00;;
44606;SDS011;30315;46.072;14.474;2022-08-03T10:11:57;2.35;;;2.13;;
44606;SDS011;30315;46.072;14.474;2022-08-03T10:14:37;3.50;;;2.20;;
44606;SDS011;30315;46.072;14.474;2022-08-03T10:17:05;2.40;;;2.30;;
44606;SDS011;30315;46.072;14.474;2022-08-03T10:19:32;2.00;;;1.90;;
44606;SDS011;30315;46.072;14.474;2022-08-03T10:22:02;2.70;;;2.20;;
44606;SDS011;30315;46.072;14.474;2022-08-03T10:24:33;4.72;;;2.20;;
44606;SDS011;30315;46.072;14.474;2022-08-03T10:27:03;2.30;;;2.10;;
44606;SDS011;30315;46.072;14.474;2022-08-03T10:29:36;1.95;;;1.85;;
44606;SDS011;30315;46.072;14.474;2022-08-03T10:32:09;1.90;;;1.80;;
44606;SDS011;30315;46.072;14.474;2022-08-03T10:34:44;1.90;;;1.80;;
44606;SDS011;30315;46.072;14.474;2022-08-03T10:37:15;1.98;;;1.88;;
44606;SDS011;30315;46.072;14.474;2022-08-03T10:39:44;2.40;;;1.60;;
44606;SDS011;30315;46.072;14.474;2022-08-03T10:42:32;1.58;;;1.52;;
44606;SDS011;30315;46.072;14.474;2022-08-03T10:45:06;2.03;;;1.92;;
44606;SDS011;30315;46.072;14.474;2022-08-03T10:47:40;1.70;;;1.60;;
44606;SDS011;30315;46.072;14.474;2022-08-03T10:50:07;1.40;;;1.30;;
44606;SDS011;30315;46.072;14.474;2022-08-03T10:52:36;2.35;;;1.45;;
44606;SDS011;30315;46.072;14.474;2022-08-03T10:55:43;1.50;;;1.35;;
44606;SDS011;30315;46.072;14.474;2022-08-03T11:04:35;2.22;;;1.60;;
44606;SDS011;30315;46.072;14.474;2022-08-03T11:09:46;1.67;;;1.58;;
44606;SDS011;30315;46.072;14.474;2022-08-03T11:14:58;1.50;;;1.50;;
44606;SDS011;30315;46.072;14.474;2022-08-03T11:17:27;1.58;;;1.48;;
44606;SDS011;30315;46.072;14.474;2022-08-03T11:19:54;2.50;;;1.60;;
44606;SDS011;30315;46.072;14.474;2022-08-03T11:35:12;1.40;;;1.40;;
44606;SDS011;30315;46.072;14.474;2022-08-03T11:40:46;1.75;;;1.40;;
44606;SDS011;30315;46.072;14.474;2022-08-03T11:48:36;1.52;;;1.20;;
44606;SDS011;30315;46.072;14.474;2022-08-03T11:51:20;1.40;;;1.40;;
44606;SDS011;30315;46.072;14.474;2022-08-03T11:56:23;1.73;;;1.63;;
44606;SDS011;30315;46.072;14.474;2022-08-03T11:58:54;1.67;;;1.40;;
44606;SDS011;30315;46.072;14.474;2022-08-03T12:01:42;1.23;;;1.23;;
44606;SDS011;30315;46.072;14.474;2022-08-03T12:04:11;1.63;;;1.42;;
44606;SDS011;30315;46.072;14.474;2022-08-03T12:06:38;1.20;;;1.20;;
44606;SDS011;30315;46.072;14.474;2022-08-03T12:09:21;1.00;;;1.00;;
44606;SDS011;30315;46.072;14.474;2022-08-03T12:11:48;1.40;;;1.40;;
44606;SDS011;30315;46.072;14.474;2022-08-03T12:14:26;1.13;;;1.13;;
44606;SDS011;30315;46.072;14.474;2022-08-03T12:17:14;1.50;;;1.20;;
44606;SDS011;30315;46.072;14.474;2022-08-03T12:19:43;1.50;;;1.40;;
44606;SDS011;30315;46.072;14.474;2022-08-03T12:22:10;1.20;;;1.20;;
44606;SDS011;30315;46.072;14.474;2022-08-03T12:24:39;1.50;;;1.40;;
44606;SDS011;30315;46.072;14.474;2022-08-03T12:29:35;1.45;;;1.40;;
44606;SDS011;30315;46.072;14.474;2022-08-03T12:32:02;1.33;;;1.30;;
44606;SDS011;30315;46.072;14.474;2022-08-03T12:34:48;1.10;;;1.10;;
44606;SDS011;30315;46.072;14.474;2022-08-03T12:37:19;2.30;;;1.30;;
44606;SDS011;30315;46.072;14.474;2022-08-03T12:39:52;1.35;;;1.25;;
44606;SDS011;30315;46.072;14.474;2022-08-03T12:42:29;1.70;;;1.48;;
44606;SDS011;30315;46.072;14.474;2022-08-03T12:44:56;1.42;;;1.33;;
44606;SDS011;30315;46.072;14.474;2022-08-03T12:47:23;1.30;;;1.20;;
44606;SDS011;30315;46.072;14.474;2022-08-03T12:49:51;1.40;;;1.30;;
44606;SDS011;30315;46.072;14.474;2022-08-03T12:52:20;1.17;;;1.13;;
44606;SDS011;30315;46.072;14.474;2022-08-03T12:54:55;1.20;;;1.20;;
44606;SDS011;30315;46.072;14.474;2022-08-03T12:57:23;1.30;;;1.30;;
44606;SDS011;30315;46.072;14.474;2022-08-03T12:59:51;1.20;;;1.13;;
44606;SDS011;30315;46.072;14.474;2022-08-03T13:02:21;1.17;;;1.17;;
44606;SDS011;30315;46.072;14.474;2022-08-03T13:04:53;1.52;;;1.42;;
44606;SDS011;30315;46.072;14.474;2022-08-03T13:07:20;1.30;;;1.30;;
44606;SDS011;30315;46.072;14.474;2022-08-03T13:09:49;1.00;;;1.00;;
44606;SDS011;30315;46.072;14.474;2022-08-03T13:12:21;1.98;;;1.10;;
44606;SDS011;30315;46.072;14.474;2022-08-03T13:14:59;1.20;;;1.20;;
44606;SDS011;30315;46.072;14.474;2022-08-03T13:17:27;1.23;;;1.23;;
44606;SDS011;30315;46.072;14.474;2022-08-03T13:19:54;1.30;;;1.25;;
44606;SDS011;30315;46.072;14.474;2022-08-03T13:22:22;1.10;;;1.10;;
44606;SDS011;30315;46.072;14.474;2022-08-03T13:24:51;1.23;;;1.23;;
44606;SDS011;30315;46.072;14.474;2022-08-03T13:27:21;1.25;;;1.20;;
44606;SDS011;30315;46.072;14.474;2022-08-03T13:30:08;1.05;;;1.05;;
44606;SDS011;30315;46.072;14.474;2022-08-03T13:32:36;1.60;;;1.50;;
44606;SDS011;30315;46.072;14.474;2022-08-03T13:35:03;2.20;;;1.58;;
44606;SDS011;30315;46.072;14.474;2022-08-03T13:37:32;2.15;;;1.45;;
44606;SDS011;30315;46.072;14.474;2022-08-03T13:39:59;2.33;;;1.60;;
44606;SDS011;30315;46.072;14.474;2022-08-03T13:42:31;1.30;;;1.30;;
44606;SDS011;30315;46.072;14.474;2022-08-03T13:44:59;1.40;;;1.40;;
44606;SDS011;30315;46.072;14.474;2022-08-03T13:47:26;1.90;;;1.80;;
44606;SDS011;30315;46.072;14.474;2022-08-03T13:49:54;1.80;;;1.70;;
44606;SDS011;30315;46.072;14.474;2022-08-03T13:52:31;1.65;;;1.55;;
44606;SDS011;30315;46.072;14.474;2022-08-03T13:55:00;1.38;;;1.30;;
44606;SDS011;30315;46.072;14.474;2022-08-03T13:57:29;1.67;;;1.58;;
44606;SDS011;30315;46.072;14.474;2022-08-03T14:00:16;1.25;;;1.20;;
44606;SDS011;30315;46.072;14.474;2022-08-03T14:02:58;1.30;;;1.30;;
44606;SDS011;30315;46.072;14.474;2022-08-03T14:05:42;1.10;;;1.10;;
44606;SDS011;30315;46.072;14.474;2022-08-03T14:08:09;1.50;;;1.20;;
44606;SDS011;30315;46.072;14.474;2022-08-03T14:10:42;1.23;;;1.23;;
44606;SDS011;30315;46.072;14.474;2022-08-03T14:13:12;1.20;;;1.20;;
44606;SDS011;30315;46.072;14.474;2022-08-03T14:15:43;1.20;;;1.10;;
44606;SDS011;30315;46.072;14.474;2022-08-03T14:18:15;0.95;;;0.95;;
44606;SDS011;30315;46.072;14.474;2022-08-03T14:20:59;1.05;;;1.05;;
44606;SDS011;30315;46.072;14.474;2022-08-03T14:23:32;1.33;;;1.00;;
44606;SDS011;30315;46.072;14.474;2022-08-03T14:26:00;1.40;;;1.30;;
44606;SDS011;30315;46.072;14.474;2022-08-03T14:28:27;1.10;;;1.10;;
44606;SDS011;30315;46.072;14.474;2022-08-03T14:30:54;1.27;;;1.20;;
44606;SDS011;30315;46.072;14.474;2022-08-03T14:33:21;1.10;;;1.10;;
44606;SDS011;30315;46.072;14.474;2022-08-03T14:35:50;1.45;;;1.20;;
44606;SDS011;30315;46.072;14.474;2022-08-03T14:38:17;1.77;;;1.13;;
44606;SDS011;30315;46.072;14.474;2022-08-03T14:40:45;1.25;;;1.20;;
44606;SDS011;30315;46.072;14.474;2022-08-03T14:43:12;1.27;;;1.20;;
44606;SDS011;30315;46.072;14.474;2022-08-03T14:45:40;1.30;;;1.20;;
44606;SDS011;30315;46.072;14.474;2022-08-03T14:48:07;1.10;;;1.10;;
44606;SDS011;30315;46.072;14.474;2022-08-03T14:50:55;1.33;;;1.20;;
44606;SDS011;30315;46.072;14.474;2022-08-03T14:53:22;1.20;;;1.20;;
44606;SDS011;30315;46.072;14.474;2022-08-03T14:55:49;1.15;;;1.05;;
44606;SDS011;30315;46.072;14.474;2022-08-03T14:58:18;1.75;;;1.17;;
44606;SDS011;30315;46.072;14.474;2022-08-03T15:00:47;1.13;;;1.13;;
44606;SDS011;30315;46.072;14.474;2022-08-03T15:03:15;1.75;;;1.27;;
44606;SDS011;30315;46.072;14.474;2022-08-03T15:05:46;1.40;;;1.30;;
44606;SDS011;30315;46.072;14.474;2022-08-03T15:08:14;1.60;;;1.50;;
44606;SDS011;30315;46.072;14.474;2022-08-03T15:10:41;1.17;;;1.17;;
44606;SDS011;30315;46.072;14.474;2022-08-03T15:13:14;1.17;;;1.10;;
44606;SDS011;30315;46.072;14.474;2022-08-03T15:15:41;1.02;;;1.02;;
44606;SDS011;30315;46.072;14.474;2022-08-03T15:18:08;0.90;;;0.90;;
44606;SDS011;30315;46.072;14.474;2022-08-03T15:20:35;0.90;;;0.90;;
44606;SDS011;30315;46.072;14.474;2022-08-03T15:23:11;1.17;;;1.17;;
44606;SDS011;30315;46.072;14.474;2022-08-03T15:25:39;2.05;;;1.05;;
44606;SDS011;30315;46.072;14.474;2022-08-03T15:28:27;0.82;;;0.82;;
44606;SDS011;30315;46.072;14.474;2022-08-03T15:30:54;0.90;;;0.90;;
44606;SDS011;30315;46.072;14.474;2022-08-03T15:33:21;0.80;;;0.80;;
44606;SDS011;30315;46.072;14.474;2022-08-03T15:35:48;0.73;;;0.73;;
44606;SDS011;30315;46.072;14.474;2022-08-03T15:38:16;1.02;;;1.02;;
44606;SDS011;30315;46.072;14.474;2022-08-03T15:40:43;0.90;;;0.90;;
44606;SDS011;30315;46.072;14.474;2022-08-03T15:43:10;1.30;;;0.90;;
44606;SDS011;30315;46.072;14.474;2022-08-03T15:45:38;1.13;;;1.13;;
44606;SDS011;30315;46.072;14.474;2022-08-03T15:48:07;1.02;;;1.02;;
44606;SDS011;30315;46.072;14.474;2022-08-03T15:50:34;1.15;;;1.15;;
44606;SDS011;30315;46.072;14.474;2022-08-03T15:53:01;1.40;;;1.30;;
44606;SDS011;30315;46.072;14.474;2022-08-03T15:55:29;1.00;;;1.00;;
44606;SDS011;30315;46.072;14.474;2022-08-03T15:57:57;1.10;;;1.10;;
44606;SDS011;30315;46.072;14.474;2022-08-03T16:00:44;1.45;;;1.23;;
44606;SDS011;30315;46.072;14.474;2022-08-03T16:03:11;1.40;;;1.30;;
44606;SDS011;30315;46.072;14.474;2022-08-03T16:05:38;1.95;;;1.30;;
44606;SDS011;30315;46.072;14.474;2022-08-03T16:08:05;1.10;;;1.10;;
44606;SDS011;30315;46.072;14.474;2022-08-03T16:10:39;1.05;;;1.05;;
44606;SDS011;30315;46.072;14.474;2022-08-03T16:13:06;1.05;;;1.05;;
44606;SDS011;30315;46.072;14.474;2022-08-03T16:15:33;2.05;;;1.00;;